sensor_id;sensor_type;location;lat;lon;timestamp;pressure;altitude;pressure_sealevel;temperature;humidity
49835;BME280;35729;52.090;13.162;2023-05-20T00:00:57;101943.22;;;13.52;61.26
49835;BME280;35729;52.090;13.162;2023-05-20T00:03:26;101944.13;;;13.49;61.54
49835;BME280;35729;52.090;13.162;2023-05-20T00:05:54;101941.56;;;13.46;61.63
49835;BME280;35729;52.090;13.162;2023-05-20T00:08:23;101953.00;;;13.45;61.73
49835;BME280;35729;52.090;13.162;2023-05-20T00:10:54;101951.28;;;13.41;61.91
49835;BME280;35729;52.090;13.162;2023-05-20T00:13:22;101946.06;;;13.40;61.99
49835;BME280;35729;52.090;13.162;2023-05-20T00:15:51;101945.19;;;13.38;62.29
49835;BME280;35729;52.090;13.162;2023-05-20T00:18:20;101936.41;;;13.34;62.34
49835;BME280;35729;52.090;13.162;2023-05-20T00:20:49;101942.59;;;13.33;62.36
49835;BME280;35729;52.090;13.162;2023-05-20T00:23:18;101944.38;;;13.31;62.67
49835;BME280;35729;52.090;13.162;2023-05-20T00:25:47;101936.50;;;13.28;62.63
49835;BME280;35729;52.090;13.162;2023-05-20T00:28:18;101939.16;;;13.26;62.95
49835;BME280;35729;52.090;13.162;2023-05-20T00:30:48;101936.56;;;13.25;62.99
49835;BME280;35729;52.090;13.162;2023-05-20T00:33:16;101921.66;;;13.22;63.12
49835;BME280;35729;52.090;13.162;2023-05-20T00:35:45;101938.38;;;13.21;63.03
49835;BME280;35729;52.090;13.162;2023-05-20T00:38:13;101924.31;;;13.19;63.46
49835;BME280;35729;52.090;13.162;2023-05-20T00:40:42;101928.75;;;13.15;63.43
49835;BME280;35729;52.090;13.162;2023-05-20T00:43:10;101932.34;;;13.11;63.55
49835;BME280;35729;52.090;13.162;2023-05-20T00:45:41;101926.22;;;13.11;63.80
49835;BME280;35729;52.090;13.162;2023-05-20T00:48:10;101931.50;;;13.09;63.83
49835;BME280;35729;52.090;13.162;2023-05-20T00:50:39;101924.47;;;13.07;64.01
49835;BME280;35729;52.090;13.162;2023-05-20T00:53:08;101921.91;;;13.03;63.97
49835;BME280;35729;52.090;13.162;2023-05-20T00:55:37;101931.59;;;13.03;64.29
49835;BME280;35729;52.090;13.162;2023-05-20T00:58:05;101933.34;;;13.01;64.24
49835;BME280;35729;52.090;13.162;2023-05-20T01:00:34;101923.69;;;13.00;64.41
49835;BME280;35729;52.090;13.162;2023-05-20T01:03:05;101921.97;;;12.99;64.49
49835;BME280;35729;52.090;13.162;2023-05-20T01:05:34;101919.34;;;12.97;64.61
49835;BME280;35729;52.090;13.162;2023-05-20T01:08:02;101921.13;;;12.97;64.69
49835;BME280;35729;52.090;13.162;2023-05-20T01:10:32;101918.47;;;12.95;64.94
49835;BME280;35729;52.090;13.162;2023-05-20T01:13:04;101912.41;;;12.90;64.97
49835;BME280;35729;52.090;13.162;2023-05-20T01:15:36;101920.28;;;12.93;64.99
49835;BME280;35729;52.090;13.162;2023-05-20T01:18:11;101915.94;;;12.91;65.37
49835;BME280;35729;52.090;13.162;2023-05-20T01:20:43;101916.88;;;12.86;65.30
49835;BME280;35729;52.090;13.162;2023-05-20T01:23:15;101914.22;;;12.85;65.45
49835;BME280;35729;52.090;13.162;2023-05-20T01:25:44;101912.50;;;12.82;65.30
49835;BME280;35729;52.090;13.162;2023-05-20T01:28:12;101912.53;;;12.81;65.56
49835;BME280;35729;52.090;13.162;2023-05-20T01:30:46;101911.66;;;12.79;65.68
49835;BME280;35729;52.090;13.162;2023-05-20T01:33:19;101911.66;;;12.79;65.60
49835;BME280;35729;52.090;13.162;2023-05-20T01:35:48;101907.31;;;12.76;65.91
49835;BME280;35729;52.090;13.162;2023-05-20T01:38:19;101908.22;;;12.75;65.74
49835;BME280;35729;52.090;13.162;2023-05-20T01:40:49;101903.88;;;12.73;65.84
49835;BME280;35729;52.090;13.162;2023-05-20T01:43:18;101904.75;;;12.71;65.97
49835;BME280;35729;52.090;13.162;2023-05-20T01:45:47;101916.16;;;12.72;66.09
49835;BME280;35729;52.090;13.162;2023-05-20T01:48:16;101905.63;;;12.72;66.03
49835;BME280;35729;52.090;13.162;2023-05-20T01:50:44;101917.03;;;12.71;66.36
49835;BME280;35729;52.090;13.162;2023-05-20T01:53:13;101913.56;;;12.69;66.28
49835;BME280;35729;52.090;13.162;2023-05-20T01:55:44;101924.97;;;12.68;66.41
49835;BME280;35729;52.090;13.162;2023-05-20T01:58:13;101910.94;;;12.66;66.31
49835;BME280;35729;52.090;13.162;2023-05-20T02:00:41;101906.59;;;12.63;66.52
49835;BME280;35729;52.090;13.162;2023-05-20T02:03:10;101907.47;;;12.62;66.58
49835;BME280;35729;52.090;13.162;2023-05-20T02:05:38;101913.63;;;12.63;66.75
49835;BME280;35729;52.090;13.162;2023-05-20T02:08:07;101911.03;;;12.60;66.68
49835;BME280;35729;52.090;13.162;2023-05-20T02:10:35;101904.91;;;12.59;66.77
49835;BME280;35729;52.090;13.162;2023-05-20T02:13:06;101907.56;;;12.58;66.89
49835;BME280;35729;52.090;13.162;2023-05-20T02:15:35;101911.94;;;12.55;66.89
49835;BME280;35729;52.090;13.162;2023-05-20T02:18:03;101913.72;;;12.53;67.09
49835;BME280;35729;52.090;13.162;2023-05-20T02:20:34;101905.06;;;12.45;67.07
49835;BME280;35729;52.090;13.162;2023-05-20T02:23:03;101911.13;;;12.50;67.09
49835;BME280;35729;52.090;13.162;2023-05-20T02:25:33;101916.44;;;12.49;67.08
49835;BME280;35729;52.090;13.162;2023-05-20T02:28:01;101911.19;;;12.46;67.23
49835;BME280;35729;52.090;13.162;2023-05-20T02:30:33;101909.50;;;12.40;67.54
49835;BME280;35729;52.090;13.162;2023-05-20T02:33:01;101915.63;;;12.39;67.54
49835;BME280;35729;52.090;13.162;2023-05-20T02:35:29;101914.81;;;12.34;67.43
49835;BME280;35729;52.090;13.162;2023-05-20T02:37:58;101916.59;;;12.30;67.59
49835;BME280;35729;52.090;13.162;2023-05-20T02:40:26;101917.53;;;12.26;67.78
49835;BME280;35729;52.090;13.162;2023-05-20T02:42:55;101920.19;;;12.23;67.72
49835;BME280;35729;52.090;13.162;2023-05-20T02:45:23;101928.09;;;12.21;67.85
49835;BME280;35729;52.090;13.162;2023-05-20T02:47:54;101922.88;;;12.18;67.86
49835;BME280;35729;52.090;13.162;2023-05-20T02:50:23;101923.75;;;12.17;68.17
49835;BME280;35729;52.090;13.162;2023-05-20T02:52:52;101929.03;;;12.16;68.29
49835;BME280;35729;52.090;13.162;2023-05-20T02:55:20;101930.81;;;12.12;68.25
49835;BME280;35729;52.090;13.162;2023-05-20T02:57:49;101928.19;;;12.09;68.49
49835;BME280;35729;52.090;13.162;2023-05-20T03:00:17;101929.09;;;12.06;68.40
49835;BME280;35729;52.090;13.162;2023-05-20T03:02:47;101935.25;;;12.07;68.72
49835;BME280;35729;52.090;13.162;2023-05-20T03:05:18;101931.75;;;12.05;68.76
49835;BME280;35729;52.090;13.162;2023-05-20T03:07:47;101936.16;;;12.03;68.90
49835;BME280;35729;52.090;13.162;2023-05-20T03:10:16;101937.06;;;12.02;68.85
49835;BME280;35729;52.090;13.162;2023-05-20T03:12:44;101944.94;;;11.99;69.08
49835;BME280;35729;52.090;13.162;2023-05-20T03:15:13;101941.47;;;11.98;69.11
49835;BME280;35729;52.090;13.162;2023-05-20T03:17:41;101939.72;;;11.97;69.23
49835;BME280;35729;52.090;13.162;2023-05-20T03:20:10;101935.34;;;11.96;69.25
49835;BME280;35729;52.090;13.162;2023-05-20T03:22:43;101935.34;;;11.96;69.32
49835;BME280;35729;52.090;13.162;2023-05-20T03:25:12;101930.06;;;11.95;69.42
49835;BME280;35729;52.090;13.162;2023-05-20T03:27:40;101928.31;;;11.94;69.42
49835;BME280;35729;52.090;13.162;2023-05-20T03:30:10;101935.31;;;11.95;69.67
49835;BME280;35729;52.090;13.162;2023-05-20T03:32:38;101930.94;;;11.94;69.69
49835;BME280;35729;52.090;13.162;2023-05-20T03:35:07;101927.44;;;11.93;69.74
49835;BME280;35729;52.090;13.162;2023-05-20T03:37:36;101928.34;;;11.92;69.94
49835;BME280;35729;52.090;13.162;2023-05-20T03:40:08;101923.94;;;11.91;70.16
49835;BME280;35729;52.090;13.162;2023-05-20T03:42:38;101921.38;;;11.85;70.06
49835;BME280;35729;52.090;13.162;2023-05-20T03:45:07;101931.84;;;11.89;69.87
49835;BME280;35729;52.090;13.162;2023-05-20T03:47:36;101928.34;;;11.90;70.21
49835;BME280;35729;52.090;13.162;2023-05-20T03:50:05;101935.34;;;11.90;70.45
49835;BME280;35729;52.090;13.162;2023-05-20T03:52:34;101926.59;;;11.91;70.40
49835;BME280;35729;52.090;13.162;2023-05-20T03:55:03;101935.34;;;11.92;70.35
49835;BME280;35729;52.090;13.162;2023-05-20T03:57:35;101937.09;;;11.93;70.67
49835;BME280;35729;52.090;13.162;2023-05-20T04:00:04;101937.97;;;11.93;70.60
49835;BME280;35729;52.090;13.162;2023-05-20T04:02:42;101937.94;;;11.95;70.69
49835;BME280;35729;52.090;13.162;2023-05-20T04:05:11;101930.06;;;11.92;70.73
49835;BME280;35729;52.090;13.162;2023-05-20T04:07:39;101933.56;;;11.94;70.77
49835;BME280;35729;52.090;13.162;2023-05-20T04:10:09;101935.31;;;11.95;70.72
49835;BME280;35729;52.090;13.162;2023-05-20T04:12:40;101930.06;;;11.95;70.86
49835;BME280;35729;52.090;13.162;2023-05-20T04:15:10;101928.28;;;11.95;70.90
49835;BME280;35729;52.090;13.162;2023-05-20T04:17:40;101927.44;;;11.96;70.96
49835;BME280;35729;52.090;13.162;2023-05-20T04:20:13;101930.97;;;11.97;70.87
49835;BME280;35729;52.090;13.162;2023-05-20T04:22:41;101924.78;;;11.98;71.01
49835;BME280;35729;52.090;13.162;2023-05-20T04:25:11;101923.06;;;11.97;71.05
49835;BME280;35729;52.090;13.162;2023-05-20T04:27:42;101916.94;;;11.96;71.17
49835;BME280;35729;52.090;13.162;2023-05-20T04:30:11;101920.44;;;11.97;71.16
49835;BME280;35729;52.090;13.162;2023-05-20T04:32:41;101913.41;;;11.97;71.27
49835;BME280;35729;52.090;13.162;2023-05-20T04:35:09;101912.53;;;11.98;71.28
49835;BME280;35729;52.090;13.162;2023-05-20T04:37:39;101910.75;;;12.00;71.55
49835;BME280;35729;52.090;13.162;2023-05-20T04:40:17;101905.50;;;11.99;71.53
49835;BME280;35729;52.090;13.162;2023-05-20T04:42:48;101901.13;;;11.98;71.73
49835;BME280;35729;52.090;13.162;2023-05-20T04:45:17;101913.41;;;11.99;71.79
49835;BME280;35729;52.090;13.162;2023-05-20T04:47:47;101911.66;;;11.99;71.67
49835;BME280;35729;52.090;13.162;2023-05-20T04:50:17;101910.75;;;11.99;71.82
49835;BME280;35729;52.090;13.162;2023-05-20T04:52:46;101911.63;;;12.01;71.84
49835;BME280;35729;52.090;13.162;2023-05-20T04:55:14;101915.97;;;12.05;71.82
49835;BME280;35729;52.090;13.162;2023-05-20T04:57:44;101911.56;;;12.05;71.85
49835;BME280;35729;52.090;13.162;2023-05-20T05:00:15;101900.16;;;12.06;71.97
49835;BME280;35729;52.090;13.162;2023-05-20T05:02:44;101902.81;;;12.08;71.90
49835;BME280;35729;52.090;13.162;2023-05-20T05:05:12;101901.91;;;12.09;72.00
49835;BME280;35729;52.090;13.162;2023-05-20T05:07:41;101906.28;;;12.10;72.00
49835;BME280;35729;52.090;13.162;2023-05-20T05:10:10;101902.75;;;12.11;72.10
49835;BME280;35729;52.090;13.162;2023-05-20T05:12:40;101900.13;;;12.13;72.21
49835;BME280;35729;52.090;13.162;2023-05-20T05:15:09;101907.09;;;12.15;72.07
49835;BME280;35729;52.090;13.162;2023-05-20T05:17:40;101908.84;;;12.16;72.06
49835;BME280;35729;52.090;13.162;2023-05-20T05:20:09;101904.47;;;12.15;72.12
49835;BME280;35729;52.090;13.162;2023-05-20T05:22:38;101904.47;;;12.18;72.18
49835;BME280;35729;52.090;13.162;2023-05-20T05:25:07;101900.09;;;12.17;72.40
49835;BME280;35729;52.090;13.162;2023-05-20T05:27:36;101903.53;;;12.22;72.07
49835;BME280;35729;52.090;13.162;2023-05-20T05:30:06;101917.56;;;12.25;72.32
49835;BME280;35729;52.090;13.162;2023-05-20T05:32:36;101913.13;;;12.27;72.44
49835;BME280;35729;52.090;13.162;2023-05-20T05:35:08;101906.97;;;12.28;72.29
49835;BME280;35729;52.090;13.162;2023-05-20T05:37:36;101908.72;;;12.30;72.29
49835;BME280;35729;52.090;13.162;2023-05-20T05:40:06;101910.44;;;12.33;72.32
49835;BME280;35729;52.090;13.162;2023-05-20T05:42:35;101911.28;;;12.36;72.30
49835;BME280;35729;52.090;13.162;2023-05-20T05:45:04;101905.97;;;12.39;72.23
49835;BME280;35729;52.090;13.162;2023-05-20T05:47:33;101905.97;;;12.41;72.25
49835;BME280;35729;52.090;13.162;2023-05-20T05:50:01;101912.97;;;12.44;72.22
49835;BME280;35729;52.090;13.162;2023-05-20T05:52:33;101895.38;;;12.46;72.33
49835;BME280;35729;52.090;13.162;2023-05-20T05:55:02;101906.75;;;12.49;72.34
49835;BME280;35729;52.090;13.162;2023-05-20T05:57:30;101908.50;;;12.50;72.32
49835;BME280;35729;52.090;13.162;2023-05-20T05:59:59;101919.88;;;12.51;72.24
49835;BME280;35729;52.090;13.162;2023-05-20T06:02:28;101916.34;;;12.53;72.40
49835;BME280;35729;52.090;13.162;2023-05-20T06:05:00;101921.59;;;12.57;72.55
49835;BME280;35729;52.090;13.162;2023-05-20T06:07:29;101917.19;;;12.57;72.28
49835;BME280;35729;52.090;13.162;2023-05-20T06:10:00;101919.84;;;12.59;72.39
49835;BME280;35729;52.090;13.162;2023-05-20T06:12:28;101914.53;;;12.60;72.38
49835;BME280;35729;52.090;13.162;2023-05-20T06:14:57;101904.84;;;12.62;72.30
49835;BME280;35729;52.090;13.162;2023-05-20T06:17:25;101906.56;;;12.65;72.34
49835;BME280;35729;52.090;13.162;2023-05-20T06:19:54;101906.56;;;12.68;72.45
49835;BME280;35729;52.090;13.162;2023-05-20T06:22:22;101907.38;;;12.71;72.27
49835;BME280;35729;52.090;13.162;2023-05-20T06:24:52;101913.50;;;12.74;72.24
49835;BME280;35729;52.090;13.162;2023-05-20T06:27:23;101914.31;;;12.77;72.38
49835;BME280;35729;52.090;13.162;2023-05-20T06:29:52;101909.03;;;12.79;72.02
49835;BME280;35729;52.090;13.162;2023-05-20T06:32:20;101902.03;;;12.79;72.02
49835;BME280;35729;52.090;13.162;2023-05-20T06:34:49;101910.69;;;12.87;72.14
49835;BME280;35729;52.090;13.162;2023-05-20T06:37:17;101917.69;;;12.92;71.81
49835;BME280;35729;52.090;13.162;2023-05-20T06:39:48;101917.59;;;12.96;72.03
49835;BME280;35729;52.090;13.162;2023-05-20T06:42:18;101917.56;;;12.99;71.85
49835;BME280;35729;52.090;13.162;2023-05-20T06:44:49;101913.13;;;13.03;71.69
49835;BME280;35729;52.090;13.162;2023-05-20T06:47:19;101917.50;;;13.06;71.80
49835;BME280;35729;52.090;13.162;2023-05-20T06:49:47;101919.22;;;13.08;71.57
49835;BME280;35729;52.090;13.162;2023-05-20T06:52:16;101908.59;;;13.13;71.64
49835;BME280;35729;52.090;13.162;2023-05-20T06:54:44;101905.91;;;13.17;71.57
49835;BME280;35729;52.090;13.162;2023-05-20T06:57:13;101908.47;;;13.24;71.64
49835;BME280;35729;52.090;13.162;2023-05-20T06:59:41;101905.78;;;13.28;71.16
49835;BME280;35729;52.090;13.162;2023-05-20T07:02:12;101897.78;;;13.34;71.22
49835;BME280;35729;52.090;13.162;2023-05-20T07:04:41;101901.25;;;13.38;70.94
49835;BME280;35729;52.090;13.162;2023-05-20T07:07:10;101896.75;;;13.43;71.05
49835;BME280;35729;52.090;13.162;2023-05-20T07:09:39;101893.19;;;13.49;70.91
49835;BME280;35729;52.090;13.162;2023-05-20T07:12:07;101894.00;;;13.52;70.77
49835;BME280;35729;52.090;13.162;2023-05-20T07:14:36;101888.66;;;13.57;70.70
49835;BME280;35729;52.090;13.162;2023-05-20T07:17:05;101890.31;;;13.63;70.60
49835;BME280;35729;52.090;13.162;2023-05-20T07:19:36;101885.84;;;13.68;70.54
49835;BME280;35729;52.090;13.162;2023-05-20T07:22:04;101884.00;;;13.73;70.18
49835;BME280;35729;52.090;13.162;2023-05-20T07:24:34;101869.84;;;13.77;70.35
49835;BME280;35729;52.090;13.162;2023-05-20T07:27:03;101862.72;;;13.82;70.16
49835;BME280;35729;52.090;13.162;2023-05-20T07:29:31;101867.00;;;13.90;70.02
49835;BME280;35729;52.090;13.162;2023-05-20T07:32:00;101861.66;;;13.94;70.09
49835;BME280;35729;52.090;13.162;2023-05-20T07:34:29;101863.31;;;14.00;69.75
49835;BME280;35729;52.090;13.162;2023-05-20T07:37:00;101864.13;;;14.04;69.47
49835;BME280;35729;52.090;13.162;2023-05-20T07:39:29;101861.38;;;14.10;69.42
49835;BME280;35729;52.090;13.162;2023-05-20T07:41:58;101854.28;;;14.13;69.26
49835;BME280;35729;52.090;13.162;2023-05-20T07:44:26;101855.91;;;14.21;69.21
49835;BME280;35729;52.090;13.162;2023-05-20T07:46:55;101857.50;;;14.28;69.16
49835;BME280;35729;52.090;13.162;2023-05-20T07:49:23;101856.47;;;14.37;68.83
49835;BME280;35729;52.090;13.162;2023-05-20T07:51:52;101844.03;;;14.43;68.59
49835;BME280;35729;52.090;13.162;2023-05-20T07:54:23;101850.91;;;14.50;68.40
49835;BME280;35729;52.090;13.162;2023-05-20T07:56:52;101848.19;;;14.55;68.04
49835;BME280;35729;52.090;13.162;2023-05-20T07:59:20;101847.19;;;14.61;67.92
49835;BME280;35729;52.090;13.162;2023-05-20T08:01:49;101846.22;;;14.66;67.99
49835;BME280;35729;52.090;13.162;2023-05-20T08:04:17;101843.47;;;14.71;67.55
49835;BME280;35729;52.090;13.162;2023-05-20T08:06:46;101845.06;;;14.78;67.65
49835;BME280;35729;52.090;13.162;2023-05-20T08:09:15;101850.22;;;14.85;67.37
49835;BME280;35729;52.090;13.162;2023-05-20T08:11:46;101842.25;;;14.88;67.05
49835;BME280;35729;52.090;13.162;2023-05-20T08:14:14;101835.06;;;14.93;67.11
49835;BME280;35729;52.090;13.162;2023-05-20T08:16:43;101842.06;;;14.95;66.59
49835;BME280;35729;52.090;13.162;2023-05-20T08:19:11;101842.97;;;14.94;66.62
49835;BME280;35729;52.090;13.162;2023-05-20T08:21:40;101845.66;;;14.93;66.89
49835;BME280;35729;52.090;13.162;2023-05-20T08:24:08;101843.94;;;14.90;66.46
49835;BME280;35729;52.090;13.162;2023-05-20T08:26:36;101826.44;;;14.86;66.83
49835;BME280;35729;52.090;13.162;2023-05-20T08:29:08;101835.22;;;14.87;66.61
49835;BME280;35729;52.090;13.162;2023-05-20T08:31:36;101833.50;;;14.84;66.77
49835;BME280;35729;52.090;13.162;2023-05-20T08:34:05;101820.44;;;14.78;66.89
49835;BME280;35729;52.090;13.162;2023-05-20T08:36:33;101836.19;;;14.82;66.57
49835;BME280;35729;52.090;13.162;2023-05-20T08:39:01;101837.00;;;14.85;66.81
49835;BME280;35729;52.090;13.162;2023-05-20T08:41:30;101833.44;;;14.87;66.53
49835;BME280;35729;52.090;13.162;2023-05-20T08:44:00;101843.97;;;14.89;66.54
49835;BME280;35729;52.090;13.162;2023-05-20T08:46:33;101841.34;;;14.89;66.64
49835;BME280;35729;52.090;13.162;2023-05-20T08:49:03;101835.13;;;14.90;66.51
49835;BME280;35729;52.090;13.162;2023-05-20T08:51:32;101829.88;;;14.88;66.45
49835;BME280;35729;52.090;13.162;2023-05-20T08:54:01;101834.22;;;14.91;66.39
49835;BME280;35729;52.090;13.162;2023-05-20T08:56:30;101822.00;;;14.87;66.35
49835;BME280;35729;52.090;13.162;2023-05-20T08:58:59;101829.00;;;14.89;66.39
49835;BME280;35729;52.090;13.162;2023-05-20T09:01:27;101829.00;;;14.89;66.29
49835;BME280;35729;52.090;13.162;2023-05-20T09:03:58;101833.38;;;14.90;66.23
49835;BME280;35729;52.090;13.162;2023-05-20T09:06:27;101835.94;;;14.93;66.15
49835;BME280;35729;52.090;13.162;2023-05-20T09:08:55;101833.09;;;15.03;66.13
49835;BME280;35729;52.090;13.162;2023-05-20T09:11:24;101836.41;;;15.11;66.06
49835;BME280;35729;52.090;13.162;2023-05-20T09:13:52;101835.38;;;15.18;65.81
49835;BME280;35729;52.090;13.162;2023-05-20T09:16:21;101832.63;;;15.23;65.34
49835;BME280;35729;52.090;13.162;2023-05-20T09:18:54;101824.72;;;15.23;65.07
49835;BME280;35729;52.090;13.162;2023-05-20T09:21:28;101824.53;;;15.29;65.11
49835;BME280;35729;52.090;13.162;2023-05-20T09:23:56;101835.03;;;15.32;64.95
49835;BME280;35729;52.090;13.162;2023-05-20T09:26:26;101826.09;;;15.38;64.99
49835;BME280;35729;52.090;13.162;2023-05-20T09:28:55;101827.78;;;15.42;64.84
49835;BME280;35729;52.090;13.162;2023-05-20T09:31:25;101826.69;;;15.49;64.39
49835;BME280;35729;52.090;13.162;2023-05-20T09:33:54;101825.75;;;15.52;64.48
49835;BME280;35729;52.090;13.162;2023-05-20T09:36:22;101818.66;;;15.54;64.24
49835;BME280;35729;52.090;13.162;2023-05-20T09:38:59;101819.28;;;15.63;63.96
49835;BME280;35729;52.090;13.162;2023-05-20T09:41:33;101818.03;;;15.77;63.78
49835;BME280;35729;52.090;13.162;2023-05-20T09:44:04;101816.09;;;15.85;63.37
49835;BME280;35729;52.090;13.162;2023-05-20T09:46:32;101806.25;;;15.90;63.25
49835;BME280;35729;52.090;13.162;2023-05-20T09:49:09;101811.47;;;15.93;62.87
49835;BME280;35729;52.090;13.162;2023-05-20T09:51:39;101799.97;;;15.94;62.67
49835;BME280;35729;52.090;13.162;2023-05-20T09:54:12;101798.84;;;16.03;62.56
49835;BME280;35729;52.090;13.162;2023-05-20T09:56:41;101798.63;;;16.11;62.61
49835;BME280;35729;52.090;13.162;2023-05-20T09:59:12;101802.78;;;16.20;62.42
49835;BME280;35729;52.090;13.162;2023-05-20T10:01:43;101803.53;;;16.25;61.99
49835;BME280;35729;52.090;13.162;2023-05-20T10:04:19;101805.03;;;16.34;61.85
49835;BME280;35729;52.090;13.162;2023-05-20T10:07:11;101795.91;;;16.44;61.59
49835;BME280;35729;52.090;13.162;2023-05-20T10:09:57;101792.00;;;16.57;61.31
49835;BME280;35729;52.090;13.162;2023-05-20T10:12:50;101800.44;;;16.70;60.59
49835;BME280;35729;52.090;13.162;2023-05-20T10:15:24;101801.84;;;16.82;60.53
49835;BME280;35729;52.090;13.162;2023-05-20T10:18:02;101800.63;;;16.94;59.67
49835;BME280;35729;52.090;13.162;2023-05-20T10:20:44;101796.69;;;17.07;59.55
49835;BME280;35729;52.090;13.162;2023-05-20T10:23:20;101788.31;;;17.20;58.71
49835;BME280;35729;52.090;13.162;2023-05-20T10:25:53;101777.47;;;17.28;58.91
49835;BME280;35729;52.090;13.162;2023-05-20T10:28:28;101782.34;;;17.40;58.34
49835;BME280;35729;52.090;13.162;2023-05-20T10:30:58;101775.91;;;17.47;58.23
49835;BME280;35729;52.090;13.162;2023-05-20T10:33:27;101772.84;;;17.59;57.83
49835;BME280;35729;52.090;13.162;2023-05-20T10:35:57;101768.94;;;17.70;57.72
49835;BME280;35729;52.090;13.162;2023-05-20T10:38:27;101764.16;;;17.80;57.22
49835;BME280;35729;52.090;13.162;2023-05-20T10:41:07;101770.03;;;17.89;56.46
49835;BME280;35729;52.090;13.162;2023-05-20T10:43:36;101768.03;;;17.96;57.10
49835;BME280;35729;52.090;13.162;2023-05-20T10:46:04;101766.84;;;18.05;56.91
49835;BME280;35729;52.090;13.162;2023-05-20T10:48:33;101758.44;;;18.16;56.41
49835;BME280;35729;52.090;13.162;2023-05-20T10:51:02;101754.56;;;18.24;55.96
49835;BME280;35729;52.090;13.162;2023-05-20T10:53:38;101757.75;;;18.34;56.07
49835;BME280;35729;52.090;13.162;2023-05-20T10:56:19;101755.56;;;18.46;55.52
49835;BME280;35729;52.090;13.162;2023-05-20T10:58:49;101736.59;;;18.55;55.39
49835;BME280;35729;52.090;13.162;2023-05-20T11:01:22;101750.44;;;18.63;55.46
49835;BME280;35729;52.090;13.162;2023-05-20T11:03:51;101742.31;;;18.68;55.10
49835;BME280;35729;52.090;13.162;2023-05-20T11:06:25;101739.56;;;18.69;54.82
49835;BME280;35729;52.090;13.162;2023-05-20T11:08:54;101739.13;;;18.80;54.71
49835;BME280;35729;52.090;13.162;2023-05-20T11:11:25;101729.06;;;18.88;54.08
49835;BME280;35729;52.090;13.162;2023-05-20T11:13:56;101727.72;;;19.00;53.64
49835;BME280;35729;52.090;13.162;2023-05-20T11:16:25;101727.94;;;19.16;53.54
49835;BME280;35729;52.090;13.162;2023-05-20T11:18:53;101723.88;;;19.28;52.63
49835;BME280;35729;52.090;13.162;2023-05-20T11:21:22;101719.38;;;19.30;53.02
49835;BME280;35729;52.090;13.162;2023-05-20T11:23:50;101713.13;;;19.31;52.49
49835;BME280;35729;52.090;13.162;2023-05-20T11:26:19;101714.97;;;19.29;52.94
49835;BME280;35729;52.090;13.162;2023-05-20T11:28:51;101710.47;;;19.31;51.60
49835;BME280;35729;52.090;13.162;2023-05-20T11:31:19;101711.06;;;19.38;52.03
49835;BME280;35729;52.090;13.162;2023-05-20T11:33:49;101701.59;;;19.51;52.26
49835;BME280;35729;52.090;13.162;2023-05-20T11:36:19;101697.44;;;19.65;51.65
49835;BME280;35729;52.090;13.162;2023-05-20T11:38:47;101688.72;;;19.82;51.38
49835;BME280;35729;52.090;13.162;2023-05-20T11:41:16;101698.59;;;19.99;51.39
49835;BME280;35729;52.090;13.162;2023-05-20T11:43:44;101687.31;;;20.13;51.12
49835;BME280;35729;52.090;13.162;2023-05-20T11:46:15;101688.31;;;20.29;50.52
49835;BME280;35729;52.090;13.162;2023-05-20T11:48:51;101684.94;;;20.45;49.82
49835;BME280;35729;52.090;13.162;2023-05-20T11:51:23;101680.63;;;20.60;49.36
49835;BME280;35729;52.090;13.162;2023-05-20T11:53:53;101673.94;;;20.70;49.21
49835;BME280;35729;52.090;13.162;2023-05-20T11:56:27;101676.69;;;20.86;49.24
49835;BME280;35729;52.090;13.162;2023-05-20T11:58:58;101678.03;;;20.95;48.43
49835;BME280;35729;52.090;13.162;2023-05-20T12:01:30;101677.50;;;21.06;47.71
49835;BME280;35729;52.090;13.162;2023-05-20T12:04:02;101669.09;;;21.13;48.37
49835;BME280;35729;52.090;13.162;2023-05-20T12:06:31;101667.59;;;21.25;48.28
49835;BME280;35729;52.090;13.162;2023-05-20T12:09:03;101666.63;;;21.44;48.06
49835;BME280;35729;52.090;13.162;2023-05-20T12:11:33;101668.50;;;21.59;47.25
49835;BME280;35729;52.090;13.162;2023-05-20T12:14:02;101660.44;;;21.77;46.91
49835;BME280;35729;52.090;13.162;2023-05-20T12:16:35;101652.56;;;21.91;46.74
49835;BME280;35729;52.090;13.162;2023-05-20T12:19:04;101661.25;;;22.11;46.83
49835;BME280;35729;52.090;13.162;2023-05-20T12:21:33;101643.75;;;22.21;45.95
49835;BME280;35729;52.090;13.162;2023-05-20T12:24:01;101651.16;;;22.32;45.77
49835;BME280;35729;52.090;13.162;2023-05-20T12:26:31;101636.44;;;22.41;45.41
49835;BME280;35729;52.090;13.162;2023-05-20T12:29:00;101625.22;;;22.50;45.30
49835;BME280;35729;52.090;13.162;2023-05-20T12:31:28;101628.13;;;22.61;45.25
49835;BME280;35729;52.090;13.162;2023-05-20T12:33:59;101623.94;;;22.72;45.01
49835;BME280;35729;52.090;13.162;2023-05-20T12:36:28;101618.22;;;22.78;44.38
49835;BME280;35729;52.090;13.162;2023-05-20T12:38:56;101619.34;;;22.90;44.68
49835;BME280;35729;52.090;13.162;2023-05-20T12:41:25;101612.47;;;23.00;44.21
49835;BME280;35729;52.090;13.162;2023-05-20T12:43:53;101618.88;;;23.12;43.78
49835;BME280;35729;52.090;13.162;2023-05-20T12:46:22;101613.09;;;23.20;43.72
49835;BME280;35729;52.090;13.162;2023-05-20T12:48:51;101626.00;;;23.27;43.15
49835;BME280;35729;52.090;13.162;2023-05-20T12:51:22;101622.09;;;23.33;43.29
49835;BME280;35729;52.090;13.162;2023-05-20T12:53:50;101604.59;;;23.42;43.10